ASA67 PAKT-PASI
Flight info
| Callsign | ASA67 |
|---|---|
| Flight time | 0h 35m |
| Altitude | 20000 |
| Route | UDENE3 FLIPS |
| Aircraft | B738/M-SDE2E3FGHIRWXY/LB1 |
Departure
| Time | 2026-04-21 22:58 |
|---|---|
| Airport | Ketchikan International Airport (PAKT) |
Arrival
| Time | 2026-04-21 23:34 |
|---|---|
| Airport | Sitka Rocky Gutierrez Airport (PASI) |
| Time | Latitude | Longitude | Altitude | Speed | Heading |
|---|---|---|---|---|---|
| 2026-04-21 22:20 | 55.35662 | -131.71030 | 41 ft | 0 kts | 45° |
| 2026-04-21 22:45 | 55.35651 | -131.71050 | 38 ft | 4 kts | 46° |
| 2026-04-21 22:46 | 55.35633 | -131.71082 | 39 ft | 4 kts | 45° |
| 2026-04-21 22:46 | 55.35617 | -131.71112 | 40 ft | 4 kts | 60° |
| 2026-04-21 22:46 | 55.35611 | -131.71153 | 37 ft | 4 kts | 107° |
| 2026-04-21 22:46 | 55.35624 | -131.71191 | 36 ft | 4 kts | 139° |
| 2026-04-21 22:47 | 55.35646 | -131.71220 | 39 ft | 4 kts | 144° |
| 2026-04-21 22:47 | 55.35659 | -131.71237 | 40 ft | 1 kts | 135° |
| 2026-04-21 22:50 | 55.35658 | -131.71236 | 41 ft | 1 kts | 135° |
| 2026-04-21 22:50 | 55.35635 | -131.71195 | 39 ft | 6 kts | 135° |
| 2026-04-21 22:50 | 55.35619 | -131.71166 | 39 ft | 0 kts | 135° |
| 2026-04-21 22:52 | 55.35597 | -131.71131 | 39 ft | 12 kts | 138° |
| 2026-04-21 22:52 | 55.35519 | -131.71000 | 38 ft | 13 kts | 134° |
| 2026-04-21 22:52 | 55.35462 | -131.70896 | 39 ft | 12 kts | 135° |
| 2026-04-21 22:52 | 55.35364 | -131.70731 | 52 ft | 24 kts | 136° |
| 2026-04-21 22:53 | 55.35269 | -131.70570 | 67 ft | 12 kts | 136° |
| 2026-04-21 22:53 | 55.35214 | -131.70483 | 83 ft | 10 kts | 139° |
| 2026-04-21 22:53 | 55.35155 | -131.70387 | 90 ft | 17 kts | 136° |
| 2026-04-21 22:53 | 55.35068 | -131.70248 | 98 ft | 17 kts | 139° |
| 2026-04-21 22:54 | 55.35021 | -131.70174 | 99 ft | 13 kts | 138° |
| 2026-04-21 22:54 | 55.34946 | -131.70049 | 99 ft | 11 kts | 135° |
| 2026-04-21 22:54 | 55.34907 | -131.70030 | 100 ft | 0 kts | 187° |
| 2026-04-21 22:56 | 55.34872 | -131.70056 | 100 ft | 17 kts | 217° |
| 2026-04-21 22:56 | 55.34765 | -131.70018 | 99 ft | 17 kts | 130° |
| 2026-04-21 22:56 | 55.34706 | -131.69876 | 100 ft | 12 kts | 141° |
| 2026-04-21 22:56 | 55.34685 | -131.69903 | 97 ft | 5 kts | 322° |
| 2026-04-21 22:57 | 55.34716 | -131.69934 | 99 ft | 6 kts | 318° |
| 2026-04-21 22:57 | 55.34724 | -131.69950 | 99 ft | 0 kts | 313° |
| 2026-04-21 22:58 | 55.34827 | -131.70127 | 100 ft | 57 kts | 316° |
| 2026-04-21 22:58 | 55.35292 | -131.70927 | 99 ft | 127 kts | 315° |
| 2026-04-21 22:58 | 55.36051 | -131.72247 | 267 ft | 171 kts | 315° |
| 2026-04-21 22:58 | 55.36883 | -131.73718 | 1377 ft | 164 kts | 315° |
| 2026-04-21 22:59 | 55.37695 | -131.75141 | 2403 ft | 170 kts | 315° |
| 2026-04-21 22:59 | 55.38604 | -131.76717 | 2857 ft | 197 kts | 315° |
| 2026-04-21 22:59 | 55.39622 | -131.78499 | 3201 ft | 220 kts | 314° |
| 2026-04-21 22:59 | 55.40741 | -131.80470 | 3674 ft | 239 kts | 315° |
| 2026-04-21 23:00 | 55.41990 | -131.82670 | 4237 ft | 258 kts | 314° |
| 2026-04-21 23:00 | 55.43259 | -131.84886 | 5392 ft | 252 kts | 315° |
| 2026-04-21 23:00 | 55.44497 | -131.86998 | 6456 ft | 255 kts | 315° |
| 2026-04-21 23:00 | 55.45766 | -131.89162 | 7452 ft | 254 kts | 315° |
| 2026-04-21 23:01 | 55.47073 | -131.91359 | 8278 ft | 260 kts | 315° |
| 2026-04-21 23:01 | 55.48137 | -131.93855 | 9390 ft | 256 kts | 295° |
| 2026-04-21 23:01 | 55.48805 | -131.96774 | 10335 ft | 259 kts | 292° |
| 2026-04-21 23:01 | 55.49488 | -131.99843 | 10690 ft | 282 kts | 292° |
| 2026-04-21 23:02 | 55.50236 | -132.03211 | 10905 ft | 307 kts | 292° |
| 2026-04-21 23:02 | 55.51043 | -132.06852 | 11115 ft | 330 kts | 292° |
| 2026-04-21 23:02 | 55.51894 | -132.10693 | 11668 ft | 340 kts | 292° |
| 2026-04-21 23:02 | 55.52757 | -132.14597 | 12491 ft | 342 kts | 292° |
| 2026-04-21 23:03 | 55.53621 | -132.18501 | 13388 ft | 342 kts | 292° |
| 2026-04-21 23:03 | 55.54485 | -132.22410 | 14256 ft | 342 kts | 292° |
| 2026-04-21 23:03 | 55.55353 | -132.26340 | 14960 ft | 345 kts | 292° |
| 2026-04-21 23:03 | 55.56229 | -132.30310 | 15640 ft | 349 kts | 292° |
| 2026-04-21 23:04 | 55.57112 | -132.34322 | 16338 ft | 351 kts | 292° |
| 2026-04-21 23:04 | 55.57997 | -132.38354 | 17034 ft | 354 kts | 292° |
| 2026-04-21 23:04 | 55.58893 | -132.42438 | 17701 ft | 358 kts | 292° |
| 2026-04-21 23:04 | 55.59796 | -132.46558 | 18343 ft | 362 kts | 292° |
| 2026-04-21 23:05 | 55.60709 | -132.50730 | 18897 ft | 365 kts | 292° |
| 2026-04-21 23:05 | 55.61630 | -132.54952 | 19281 ft | 374 kts | 292° |
| 2026-04-21 23:05 | 55.62578 | -132.59309 | 19540 ft | 383 kts | 292° |
| 2026-04-21 23:05 | 55.63541 | -132.63742 | 20006 ft | 387 kts | 292° |
| 2026-04-21 23:06 | 55.64507 | -132.68205 | 20124 ft | 391 kts | 292° |
| 2026-04-21 23:06 | 55.65482 | -132.72721 | 20128 ft | 392 kts | 292° |
| 2026-04-21 23:06 | 55.66454 | -132.77228 | 20132 ft | 391 kts | 292° |
| 2026-04-21 23:06 | 55.67424 | -132.81731 | 20139 ft | 391 kts | 292° |
| 2026-04-21 23:07 | 55.68393 | -132.86239 | 20138 ft | 392 kts | 292° |
| 2026-04-21 23:07 | 55.69491 | -132.90639 | 20143 ft | 391 kts | 301° |
| 2026-04-21 23:07 | 55.71156 | -132.94427 | 20147 ft | 389 kts | 310° |
| 2026-04-21 23:07 | 55.72922 | -132.98072 | 20142 ft | 389 kts | 310° |
| 2026-04-21 23:08 | 55.74659 | -133.01749 | 20144 ft | 389 kts | 309° |
| 2026-04-21 23:08 | 55.76383 | -133.05449 | 20136 ft | 389 kts | 309° |
| 2026-04-21 23:08 | 55.78099 | -133.09160 | 20134 ft | 389 kts | 309° |
| 2026-04-21 23:08 | 55.79810 | -133.12873 | 20133 ft | 388 kts | 309° |
| 2026-04-21 23:09 | 55.81519 | -133.16589 | 20129 ft | 388 kts | 309° |
| 2026-04-21 23:09 | 55.83225 | -133.20305 | 20127 ft | 388 kts | 309° |
| 2026-04-21 23:09 | 55.84930 | -133.24023 | 20126 ft | 388 kts | 309° |
| 2026-04-21 23:09 | 55.86634 | -133.27744 | 20130 ft | 387 kts | 309° |
| 2026-04-21 23:10 | 55.88335 | -133.31463 | 20139 ft | 387 kts | 309° |
| 2026-04-21 23:10 | 55.90036 | -133.35188 | 20133 ft | 387 kts | 309° |
| 2026-04-21 23:10 | 55.91731 | -133.38905 | 20133 ft | 387 kts | 309° |
| 2026-04-21 23:10 | 55.93426 | -133.42629 | 20135 ft | 387 kts | 309° |
| 2026-04-21 23:11 | 55.95121 | -133.46358 | 20123 ft | 387 kts | 309° |
| 2026-04-21 23:11 | 55.96814 | -133.50085 | 20136 ft | 386 kts | 309° |
| 2026-04-21 23:11 | 55.98505 | -133.53815 | 20121 ft | 387 kts | 309° |
| 2026-04-21 23:11 | 56.00195 | -133.57551 | 20121 ft | 387 kts | 309° |
| 2026-04-21 23:12 | 56.01883 | -133.61286 | 20130 ft | 387 kts | 309° |
| 2026-04-21 23:12 | 56.03572 | -133.65032 | 20122 ft | 387 kts | 309° |
| 2026-04-21 23:12 | 56.05262 | -133.68784 | 20125 ft | 387 kts | 308° |
| 2026-04-21 23:12 | 56.06949 | -133.72539 | 20134 ft | 387 kts | 308° |
| 2026-04-21 23:13 | 56.08614 | -133.76246 | 19728 ft | 379 kts | 308° |
| 2026-04-21 23:13 | 56.10244 | -133.79881 | 19176 ft | 371 kts | 308° |
| 2026-04-21 23:13 | 56.11847 | -133.83460 | 18574 ft | 366 kts | 308° |
| 2026-04-21 23:13 | 56.13431 | -133.87003 | 17884 ft | 361 kts | 308° |
| 2026-04-21 23:14 | 56.14994 | -133.90507 | 17130 ft | 359 kts | 308° |
| 2026-04-21 23:14 | 56.16546 | -133.93989 | 16491 ft | 354 kts | 308° |
| 2026-04-21 23:14 | 56.18070 | -133.97414 | 15886 ft | 349 kts | 308° |
| 2026-04-21 23:14 | 56.19574 | -134.00798 | 15290 ft | 345 kts | 308° |
| 2026-04-21 23:15 | 56.21061 | -134.04148 | 14691 ft | 341 kts | 308° |
| 2026-04-21 23:15 | 56.22527 | -134.07459 | 14119 ft | 338 kts | 308° |
| 2026-04-21 23:15 | 56.23983 | -134.10748 | 13510 ft | 335 kts | 308° |
| 2026-04-21 23:15 | 56.25422 | -134.14001 | 12925 ft | 330 kts | 308° |
| 2026-04-21 23:16 | 56.26839 | -134.17211 | 12378 ft | 325 kts | 308° |
| 2026-04-21 23:16 | 56.28232 | -134.20371 | 11825 ft | 320 kts | 308° |
| 2026-04-21 23:16 | 56.29594 | -134.23466 | 11283 ft | 311 kts | 308° |
| 2026-04-21 23:16 | 56.30897 | -134.26432 | 11129 ft | 292 kts | 308° |
| 2026-04-21 23:17 | 56.32121 | -134.29221 | 10982 ft | 275 kts | 308° |
| 2026-04-21 23:17 | 56.33272 | -134.31845 | 10847 ft | 260 kts | 308° |
| 2026-04-21 23:17 | 56.34361 | -134.34332 | 10744 ft | 245 kts | 308° |
| 2026-04-21 23:17 | 56.35386 | -134.36676 | 10649 ft | 232 kts | 308° |
| 2026-04-21 23:18 | 56.36348 | -134.38876 | 10559 ft | 222 kts | 308° |
| 2026-04-21 23:18 | 56.37287 | -134.41024 | 10467 ft | 214 kts | 308° |
| 2026-04-21 23:18 | 56.38190 | -134.43094 | 10382 ft | 206 kts | 308° |
| 2026-04-21 23:18 | 56.39059 | -134.45087 | 10304 ft | 200 kts | 308° |
| 2026-04-21 23:19 | 56.39918 | -134.47057 | 10235 ft | 199 kts | 308° |
| 2026-04-21 23:19 | 56.40772 | -134.49018 | 10151 ft | 198 kts | 308° |
| 2026-04-21 23:19 | 56.41623 | -134.50975 | 10070 ft | 198 kts | 308° |
| 2026-04-21 23:19 | 56.42475 | -134.52933 | 9939 ft | 200 kts | 309° |
| 2026-04-21 23:20 | 56.43347 | -134.54942 | 9719 ft | 206 kts | 308° |
| 2026-04-21 23:20 | 56.44238 | -134.56994 | 9481 ft | 207 kts | 308° |
| 2026-04-21 23:20 | 56.45126 | -134.59040 | 9243 ft | 206 kts | 308° |
| 2026-04-21 23:20 | 56.46004 | -134.61066 | 8999 ft | 204 kts | 308° |
| 2026-04-21 23:21 | 56.46873 | -134.63074 | 8777 ft | 202 kts | 308° |
| 2026-04-21 23:21 | 56.47733 | -134.65063 | 8546 ft | 200 kts | 308° |
| 2026-04-21 23:21 | 56.48582 | -134.67025 | 8329 ft | 197 kts | 308° |
| 2026-04-21 23:21 | 56.49425 | -134.68979 | 8109 ft | 197 kts | 309° |
| 2026-04-21 23:22 | 56.50268 | -134.70930 | 7890 ft | 196 kts | 309° |
| 2026-04-21 23:22 | 56.51105 | -134.72871 | 7682 ft | 196 kts | 308° |
| 2026-04-21 23:22 | 56.51945 | -134.74826 | 7468 ft | 198 kts | 308° |
| 2026-04-21 23:22 | 56.52800 | -134.76813 | 7246 ft | 201 kts | 308° |
| 2026-04-21 23:23 | 56.53669 | -134.78830 | 7016 ft | 207 kts | 308° |
| 2026-04-21 23:23 | 56.54577 | -134.80940 | 6785 ft | 219 kts | 308° |
| 2026-04-21 23:23 | 56.55555 | -134.83217 | 6550 ft | 239 kts | 308° |
| 2026-04-21 23:23 | 56.56598 | -134.85649 | 6233 ft | 246 kts | 308° |
| 2026-04-21 23:24 | 56.57645 | -134.88089 | 6051 ft | 243 kts | 308° |
| 2026-04-21 23:24 | 56.58663 | -134.90472 | 6008 ft | 236 kts | 309° |
| 2026-04-21 23:24 | 56.59668 | -134.92826 | 5995 ft | 236 kts | 308° |
| 2026-04-21 23:24 | 56.60673 | -134.95172 | 6024 ft | 235 kts | 308° |
| 2026-04-21 23:25 | 56.61677 | -134.97526 | 5996 ft | 236 kts | 307° |
| 2026-04-21 23:25 | 56.62679 | -134.99879 | 5993 ft | 235 kts | 307° |
| 2026-04-21 23:25 | 56.63679 | -135.02230 | 5992 ft | 235 kts | 307° |
| 2026-04-21 23:25 | 56.64676 | -135.04575 | 5977 ft | 234 kts | 307° |
| 2026-04-21 23:26 | 56.65671 | -135.06917 | 5994 ft | 235 kts | 307° |
| 2026-04-21 23:26 | 56.66669 | -135.09271 | 6009 ft | 235 kts | 307° |
| 2026-04-21 23:26 | 56.67671 | -135.11634 | 6012 ft | 236 kts | 307° |
| 2026-04-21 23:26 | 56.68677 | -135.14012 | 5996 ft | 239 kts | 307° |
| 2026-04-21 23:27 | 56.69688 | -135.16404 | 5991 ft | 238 kts | 307° |
| 2026-04-21 23:27 | 56.70697 | -135.18791 | 5999 ft | 238 kts | 307° |
| 2026-04-21 23:27 | 56.71707 | -135.21182 | 5990 ft | 238 kts | 307° |
| 2026-04-21 23:27 | 56.72713 | -135.23565 | 5984 ft | 237 kts | 307° |
| 2026-04-21 23:28 | 56.73711 | -135.25935 | 6001 ft | 235 kts | 307° |
| 2026-04-21 23:28 | 56.74709 | -135.28303 | 5996 ft | 235 kts | 307° |
| 2026-04-21 23:28 | 56.75781 | -135.30586 | 5775 ft | 243 kts | 321° |
| 2026-04-21 23:28 | 56.77301 | -135.31955 | 5531 ft | 247 kts | 338° |
| 2026-04-21 23:29 | 56.78941 | -135.32910 | 5188 ft | 248 kts | 340° |
| 2026-04-21 23:29 | 56.80593 | -135.33814 | 4838 ft | 249 kts | 340° |
| 2026-04-21 23:29 | 56.82248 | -135.34736 | 4506 ft | 248 kts | 340° |
| 2026-04-21 23:29 | 56.83904 | -135.35675 | 4162 ft | 250 kts | 340° |
| 2026-04-21 23:30 | 56.85561 | -135.36624 | 3829 ft | 250 kts | 339° |
| 2026-04-21 23:30 | 56.87223 | -135.37582 | 3496 ft | 251 kts | 340° |
| 2026-04-21 23:30 | 56.88925 | -135.38356 | 3166 ft | 255 kts | 348° |
| 2026-04-21 23:30 | 56.90692 | -135.38833 | 2803 ft | 255 kts | 349° |
| 2026-04-21 23:31 | 56.92394 | -135.39270 | 2450 ft | 245 kts | 350° |
| 2026-04-21 23:31 | 56.94052 | -135.39582 | 2105 ft | 235 kts | 2° |
| 2026-04-21 23:31 | 56.95547 | -135.38636 | 1857 ft | 222 kts | 30° |
| 2026-04-21 23:31 | 56.96721 | -135.36919 | 1570 ft | 211 kts | 43° |
| 2026-04-21 23:32 | 56.97734 | -135.35088 | 1336 ft | 199 kts | 44° |
| 2026-04-21 23:32 | 56.98685 | -135.33345 | 1138 ft | 187 kts | 43° |
| 2026-04-21 23:32 | 56.99581 | -135.31736 | 981 ft | 172 kts | 38° |
| 2026-04-21 23:32 | 57.00572 | -135.30867 | 929 ft | 153 kts | 4° |
| 2026-04-21 23:33 | 57.01571 | -135.30886 | 979 ft | 138 kts | 355° |
| 2026-04-21 23:33 | 57.02414 | -135.31559 | 730 ft | 140 kts | 303° |
| 2026-04-21 23:33 | 57.02990 | -135.32972 | 462 ft | 137 kts | 308° |
| 2026-04-21 23:33 | 57.03637 | -135.34256 | 205 ft | 136 kts | 312° |
| 2026-04-21 23:34 | 57.04317 | -135.35446 | 38 ft | 130 kts | 310° |
| 2026-04-21 23:34 | 57.04736 | -135.36213 | 34 ft | 52 kts | 314° |
| 2026-04-21 23:34 | 57.04854 | -135.36308 | 34 ft | 19 kts | 360° |
| 2026-04-21 23:34 | 57.04950 | -135.36331 | 34 ft | 6 kts | 332° |
| 2026-04-21 23:35 | 57.04973 | -135.36364 | 33 ft | 7 kts | 318° |
| 2026-04-21 23:35 | 57.05044 | -135.36481 | 34 ft | 22 kts | 316° |
| 2026-04-21 23:35 | 57.05158 | -135.36688 | 34 ft | 20 kts | 315° |
| 2026-04-21 23:35 | 57.05240 | -135.36828 | 33 ft | 14 kts | 317° |
| 2026-04-21 23:36 | 57.05280 | -135.36899 | 33 ft | 7 kts | 313° |
| 2026-04-21 23:36 | 57.05351 | -135.36914 | 34 ft | 7 kts | 49° |
| 2026-04-21 23:36 | 57.05355 | -135.36862 | 34 ft | 8 kts | 109° |
| 2026-04-21 23:36 | 57.05338 | -135.36826 | 34 ft | 0 kts | 134° |